createdAt,value
2023-04-13T00:00:48.269Z,99247.63
2023-04-13T00:03:17.428Z,99241.41
2023-04-13T00:05:46.309Z,99232.31
2023-04-13T00:08:13.370Z,99228.91
2023-04-13T00:10:41.895Z,99214.09
2023-04-13T00:13:10.591Z,99218.78
2023-04-13T00:15:42.104Z,99208.09
2023-04-13T00:18:10.769Z,99202.56
2023-04-13T00:20:38.644Z,99193.38
2023-04-13T00:23:05.294Z,99199.06
2023-04-13T00:25:32.032Z,99196.34
2023-04-13T00:28:02.977Z,99197.38
2023-04-13T00:30:30.375Z,99198.34
2023-04-13T00:32:57.140Z,99194.00
2023-04-13T00:35:25.245Z,99199.13
2023-04-13T00:37:53.449Z,99194.19
2023-04-13T00:40:20.350Z,99193.97
2023-04-13T00:42:48.543Z,99200.19
2023-04-13T00:45:16.301Z,99201.72
2023-04-13T00:47:46.756Z,99198.00
2023-04-13T00:50:14.975Z,99189.34
2023-04-13T00:52:42.946Z,99189.78
2023-04-13T00:55:09.753Z,99185.81
2023-04-13T00:57:40.767Z,99185.78
2023-04-13T01:00:09.618Z,99180.41
2023-04-13T01:02:41.930Z,99168.97
2023-04-13T01:05:12.429Z,99167.06
2023-04-13T01:07:45.507Z,99169.66
2023-04-13T01:10:31.216Z,99162.50
2023-04-13T01:13:16.214Z,99163.56
2023-04-13T01:15:46.900Z,99157.50
2023-04-13T01:18:15.684Z,99158.38
2023-04-13T01:20:45.610Z,99153.81
2023-04-13T01:23:27.927Z,99147.41
2023-04-13T01:26:01.637Z,99147.06
2023-04-13T01:28:29.023Z,99147.41
2023-04-13T01:30:57.730Z,99145.31
2023-04-13T01:33:25.509Z,99142.72
2023-04-13T01:35:52.690Z,99146.31
2023-04-13T01:38:26.679Z,99143.84
2023-04-13T01:40:53.319Z,99147.38
2023-04-13T01:43:20.915Z,99143.63
2023-04-13T01:46:08.680Z,99142.63
2023-04-13T01:48:42.457Z,99142.97
2023-04-13T01:51:19.390Z,99139.38
2023-04-13T01:54:02.772Z,99128.91
2023-04-13T01:56:29.697Z,99124.88
2023-04-13T01:58:58.768Z,99134.25
2023-04-13T02:01:26.901Z,99121.59
2023-04-13T02:03:53.710Z,99123.38
2023-04-13T02:06:20.927Z,99122.84
2023-04-13T02:08:50.067Z,99115.75
2023-04-13T02:11:17.716Z,99095.34
2023-04-13T02:13:44.704Z,99098.94
2023-04-13T02:16:11.694Z,99093.50
2023-04-13T02:18:38.781Z,99090.84
2023-04-13T02:21:12.131Z,99094.00
2023-04-13T02:23:40.846Z,99095.81
2023-04-13T02:26:18.979Z,99093.59
2023-04-13T02:28:48.366Z,99092.84
2023-04-13T02:31:17.186Z,99088.41
2023-04-13T02:33:45.189Z,99077.38
2023-04-13T02:36:12.822Z,99082.00
2023-04-13T02:38:39.434Z,99073.44
2023-04-13T02:41:06.694Z,99074.13
2023-04-13T02:43:33.510Z,99073.66
2023-04-13T02:46:00.387Z,99081.75
2023-04-13T02:48:27.045Z,99081.34
2023-04-13T02:50:54.198Z,99089.19
2023-04-13T02:53:22.044Z,99076.84
2023-04-13T02:55:50.456Z,99080.66
2023-04-13T02:58:17.359Z,99078.16
2023-04-13T03:00:44.682Z,99074.59
2023-04-13T03:03:11.656Z,99084.38
2023-04-13T03:05:39.036Z,99080.38
2023-04-13T03:08:05.761Z,99082.25
2023-04-13T03:10:32.372Z,99074.78
2023-04-13T03:12:59.054Z,99080.47
2023-04-13T03:15:25.586Z,99078.84
2023-04-13T03:17:53.041Z,99076.00
2023-04-13T03:20:21.202Z,99078.78
2023-04-13T03:22:47.770Z,99072.91
2023-04-13T03:25:14.576Z,99075.78
2023-04-13T03:27:41.121Z,99072.19
2023-04-13T03:30:09.001Z,99076.84
2023-04-13T03:32:35.897Z,99067.38
2023-04-13T03:35:02.566Z,99072.50
2023-04-13T03:37:32.544Z,99077.38
2023-04-13T03:39:59.189Z,99061.97
2023-04-13T03:42:25.698Z,99067.00
2023-04-13T03:44:52.999Z,99064.41
2023-04-13T03:47:19.721Z,99064.13
2023-04-13T03:49:47.137Z,99074.31
2023-04-13T03:52:13.744Z,99071.69
2023-04-13T03:54:40.481Z,99075.69
2023-04-13T03:57:07.482Z,99064.19
2023-04-13T03:59:34.323Z,99064.53
2023-04-13T04:02:03.008Z,99072.28
2023-04-13T04:04:29.769Z,99066.72
2023-04-13T04:06:58.003Z,99065.97
2023-04-13T04:09:25.444Z,99059.91
2023-04-13T04:11:52.057Z,99074.25
2023-04-13T04:14:19.190Z,99078.09
2023-04-13T04:16:46.194Z,99077.69
2023-04-13T04:19:12.774Z,99076.66
2023-04-13T04:21:44.697Z,99070.56
2023-04-13T04:24:12.553Z,99074.78
2023-04-13T04:26:40.311Z,99086.19
2023-04-13T04:29:09.018Z,99083.69
2023-04-13T04:31:37.547Z,99081.38
2023-04-13T04:34:04.531Z,99074.44
2023-04-13T04:36:31.201Z,99072.22
2023-04-13T04:39:02.770Z,99086.38
2023-04-13T04:41:31.388Z,99083.97
2023-04-13T04:44:02.921Z,99090.34
2023-04-13T04:46:29.861Z,99090.41
2023-04-13T04:49:01.027Z,99097.47
2023-04-13T04:51:28.133Z,99107.84
2023-04-13T04:53:54.919Z,99107.63
2023-04-13T04:56:21.824Z,99113.81
2023-04-13T04:58:48.395Z,99115.38
2023-04-13T05:01:15.021Z,99110.84
2023-04-13T05:03:42.203Z,99121.03
2023-04-13T05:06:09.445Z,99119.59
2023-04-13T05:08:36.036Z,99125.75
2023-04-13T05:11:06.151Z,99130.25
2023-04-13T05:13:32.808Z,99133.63
2023-04-13T05:15:59.602Z,99130.19
2023-04-13T05:18:26.178Z,99139.63
2023-04-13T05:20:52.762Z,99154.50
2023-04-13T05:23:19.278Z,99140.84
2023-04-13T05:25:45.845Z,99141.19
2023-04-13T05:28:12.486Z,99140.41
2023-04-13T05:30:39.092Z,99152.44
2023-04-13T05:33:06.602Z,99159.44
2023-04-13T05:35:33.174Z,99171.31
2023-04-13T05:38:00.892Z,99172.53
2023-04-13T05:40:29.098Z,99179.31
2023-04-13T05:42:56.304Z,99194.97
2023-04-13T05:45:24.351Z,99204.56
2023-04-13T05:47:50.953Z,99207.28
2023-04-13T05:50:17.917Z,99196.50
2023-04-13T05:52:44.525Z,99223.50
2023-04-13T05:55:11.840Z,99222.41
2023-04-13T05:57:38.451Z,99248.34
2023-04-13T06:00:08.236Z,99256.97
2023-04-13T06:02:36.275Z,99252.69
2023-04-13T06:05:05.165Z,99259.31
2023-04-13T06:07:31.880Z,99266.59
2023-04-13T06:10:00.797Z,99279.94
2023-04-13T06:12:27.659Z,99300.06
2023-04-13T06:14:55.152Z,99301.94
2023-04-13T06:17:21.755Z,99292.00
2023-04-13T06:19:48.480Z,99267.91
2023-04-13T06:22:15.031Z,99280.66
2023-04-13T06:24:41.694Z,99305.81
2023-04-13T06:27:08.467Z,99324.84
2023-04-13T06:29:35.104Z,99321.09
2023-04-13T06:32:01.869Z,99328.47
2023-04-13T06:34:28.556Z,99324.47
2023-04-13T06:36:55.349Z,99331.66
2023-04-13T06:39:21.874Z,99342.88
2023-04-13T06:41:48.399Z,99363.28
2023-04-13T06:44:15.043Z,99365.69
2023-04-13T06:46:41.760Z,99401.81
2023-04-13T06:49:09.245Z,99421.28
2023-04-13T06:51:36.098Z,99420.66
2023-04-13T06:54:02.726Z,99416.88
2023-04-13T06:56:29.511Z,99440.63
2023-04-13T06:59:02.332Z,99453.03
2023-04-13T07:01:29.646Z,99444.03
2023-04-13T07:03:56.892Z,99464.25
2023-04-13T07:06:23.711Z,99482.44
2023-04-13T07:08:50.725Z,99483.09
2023-04-13T07:11:17.304Z,99504.56
2023-04-13T07:13:44.093Z,99533.78
2023-04-13T07:16:12.337Z,99545.84
2023-04-13T07:18:39.025Z,99565.69
2023-04-13T07:21:06.157Z,99576.34
2023-04-13T07:23:33.800Z,99594.06
2023-04-13T07:26:00.859Z,99610.53
2023-04-13T07:28:28.501Z,99624.06
2023-04-13T07:30:55.106Z,99635.72
2023-04-13T07:33:21.763Z,99627.75
2023-04-13T07:35:50.300Z,99617.09
2023-04-13T07:38:16.992Z,99601.88
2023-04-13T07:40:43.540Z,99596.25
2023-04-13T07:43:10.267Z,99579.97
2023-04-13T07:45:36.812Z,99557.91
2023-04-13T07:48:03.693Z,99549.88
2023-04-13T07:50:31.242Z,99552.47
2023-04-13T07:52:57.767Z,99558.25
2023-04-13T07:55:24.506Z,99526.63
2023-04-13T07:57:51.079Z,99532.16
2023-04-13T08:00:20.441Z,99553.09
2023-04-13T08:02:47.761Z,99552.56
2023-04-13T08:05:14.866Z,99570.19
2023-04-13T08:07:41.531Z,99593.91
2023-04-13T08:10:08.904Z,99602.72
2023-04-13T08:12:35.469Z,99595.72
2023-04-13T08:15:02.439Z,99615.09
2023-04-13T08:17:29.054Z,99619.63
2023-04-13T08:19:55.604Z,99627.59
2023-04-13T08:22:22.149Z,99632.91
2023-04-13T08:24:48.825Z,99653.72
2023-04-13T08:27:15.722Z,99652.66
2023-04-13T08:29:42.281Z,99668.91
2023-04-13T08:32:08.814Z,99676.81
2023-04-13T08:34:35.390Z,99673.56
2023-04-13T08:37:02.335Z,99677.09
2023-04-13T08:39:28.909Z,99683.63
2023-04-13T08:41:55.556Z,99700.13
2023-04-13T08:44:23.584Z,99704.06
2023-04-13T08:46:52.574Z,99713.91
2023-04-13T08:49:19.871Z,99701.66
2023-04-13T08:51:47.454Z,99727.06
2023-04-13T08:54:16.401Z,99735.41
2023-04-13T08:56:47.157Z,99725.16
2023-04-13T08:59:17.200Z,99722.56
2023-04-13T09:01:46.771Z,99723.91
2023-04-13T09:04:18.193Z,99732.34
2023-04-13T09:06:47.933Z,99729.88
2023-04-13T09:09:14.983Z,99742.78
2023-04-13T09:11:43.361Z,99736.19
2023-04-13T09:14:10.521Z,99739.63
2023-04-13T09:16:41.606Z,99744.47
2023-04-13T09:19:08.867Z,99752.69
2023-04-13T09:21:38.230Z,99777.53
2023-04-13T09:24:07.186Z,99761.69
2023-04-13T09:26:47.357Z,99755.41
2023-04-13T09:29:19.299Z,99745.78
2023-04-13T09:31:47.464Z,99750.81
2023-04-13T09:34:15.542Z,99765.53
2023-04-13T09:36:53.496Z,99752.13
2023-04-13T09:39:26.242Z,99761.34
2023-04-13T09:41:53.541Z,99766.34
2023-04-13T09:44:24.351Z,99761.50
2023-04-13T09:47:02.219Z,99762.06
2023-04-13T09:49:42.706Z,99756.19
2023-04-13T09:52:25.107Z,99750.19
2023-04-13T09:54:53.350Z,99762.88
2023-04-13T09:57:25.788Z,99752.66
2023-04-13T09:59:53.977Z,99743.72
2023-04-13T10:02:21.709Z,99746.75
2023-04-13T10:04:48.523Z,99746.78
2023-04-13T10:07:15.145Z,99761.56
2023-04-13T10:09:44.208Z,99745.34
2023-04-13T10:12:12.144Z,99750.44
2023-04-13T10:14:41.057Z,99753.72
2023-04-13T10:17:38.085Z,99748.25
2023-04-13T10:20:10.486Z,99731.84
2023-04-13T10:22:39.473Z,99738.25
2023-04-13T10:25:07.316Z,99740.34
2023-04-13T10:27:36.520Z,99746.56
2023-04-13T10:30:16.847Z,99733.09
2023-04-13T10:32:43.735Z,99740.94
2023-04-13T10:35:12.242Z,99728.94
2023-04-13T10:37:40.649Z,99739.56
2023-04-13T10:40:13.478Z,99743.13
2023-04-13T10:45:18.286Z,99740.53
2023-04-13T10:47:44.925Z,99738.22
2023-04-13T10:50:24.916Z,99733.00
2023-04-13T10:53:05.109Z,99730.75
2023-04-13T10:55:32.999Z,99731.69
2023-04-13T10:58:01.470Z,99720.03
2023-04-13T11:00:45.702Z,99726.75
2023-04-13T11:03:17.976Z,99727.19
2023-04-13T11:05:59.132Z,99720.81
2023-04-13T11:08:28.074Z,99726.22
2023-04-13T11:10:57.140Z,99726.66
2023-04-13T11:13:29.696Z,99725.78
2023-04-13T11:16:04.780Z,99733.00
2023-04-13T11:18:32.279Z,99726.25
2023-04-13T11:20:58.954Z,99713.81
2023-04-13T11:23:25.554Z,99705.59
2023-04-13T11:25:53.198Z,99712.53
2023-04-13T11:28:20.149Z,99691.81
2023-04-13T11:30:54.670Z,99683.94
2023-04-13T11:33:25.178Z,99684.50
2023-04-13T11:35:53.125Z,99677.81
2023-04-13T11:38:20.496Z,99679.72
2023-04-13T11:40:48.345Z,99681.91
2023-04-13T11:43:18.801Z,99677.59
2023-04-13T11:45:47.320Z,99678.28
2023-04-13T11:48:14.798Z,99673.72
2023-04-13T11:50:42.284Z,99662.91
2023-04-13T11:53:10.242Z,99651.31
2023-04-13T11:55:51.885Z,99664.00
2023-04-13T11:58:21.404Z,99667.00
2023-04-13T12:00:48.631Z,99669.56
2023-04-13T12:05:47.807Z,99641.19
2023-04-13T12:08:24.641Z,99648.38
2023-04-13T12:11:20.107Z,99664.75
2023-04-13T12:13:50.343Z,99654.91
2023-04-13T12:19:09.876Z,99665.66
2023-04-13T12:21:37.008Z,99675.88
2023-04-13T12:24:05.657Z,99691.19
2023-04-13T12:29:08.585Z,99693.16
2023-04-13T12:31:37.168Z,99675.66
2023-04-13T12:34:07.753Z,99600.47
2023-04-13T12:36:36.373Z,99520.50
2023-04-13T12:39:04.466Z,99514.50
2023-04-13T12:41:32.408Z,99535.63
2023-04-13T12:43:59.021Z,99485.63
2023-04-13T12:46:26.646Z,99418.47
2023-04-13T12:48:54.100Z,99383.72
2023-04-13T12:51:20.777Z,99343.28
2023-04-13T12:53:47.877Z,99308.47
2023-04-13T12:56:14.446Z,99276.31
2023-04-13T12:58:40.983Z,99253.00
2023-04-13T13:01:08.651Z,99232.88
2023-04-13T13:03:37.034Z,99228.22
2023-04-13T13:06:05.324Z,99220.75
2023-04-13T13:08:34.963Z,99211.41
2023-04-13T13:11:03.674Z,99199.63
2023-04-13T13:13:30.427Z,99193.47
2023-04-13T13:15:57.161Z,99189.28
2023-04-13T13:18:24.783Z,99209.44
2023-04-13T13:20:54.859Z,99219.94
2023-04-13T13:23:21.467Z,99236.41
2023-04-13T13:26:10.563Z,99215.47
2023-04-13T13:28:35.949Z,99210.94
2023-04-13T13:31:02.583Z,99215.75
2023-04-13T13:33:29.154Z,99222.31
2023-04-13T13:35:55.911Z,99200.34
2023-04-13T13:38:22.440Z,99203.13
2023-04-13T13:40:49.265Z,99203.72
2023-04-13T13:43:18.017Z,99200.22
2023-04-13T13:45:44.698Z,99199.94
2023-04-13T13:48:11.577Z,99200.53
2023-04-13T13:50:38.135Z,99188.72
2023-04-13T13:53:05.152Z,99198.03
2023-04-13T13:55:31.986Z,99180.91
2023-04-13T13:57:58.888Z,99180.84
2023-04-13T14:00:25.996Z,99169.19
2023-04-13T14:02:53.199Z,99153.66
2023-04-13T14:05:21.897Z,99155.41
2023-04-13T14:07:48.782Z,99143.81
2023-04-13T14:10:15.504Z,99144.72
2023-04-13T14:12:45.166Z,99130.63
2023-04-13T14:15:12.778Z,99127.19
2023-04-13T14:17:40.353Z,99115.19
2023-04-13T14:20:11.810Z,99115.75
2023-04-13T14:22:39.700Z,99117.56
2023-04-13T14:25:07.518Z,99119.16
2023-04-13T14:27:34.089Z,99104.38
2023-04-13T14:30:02.053Z,99106.94
2023-04-13T14:32:29.136Z,99118.97
2023-04-13T14:35:00.144Z,99108.09
2023-04-13T14:37:28.116Z,99114.03
2023-04-13T14:39:55.250Z,99127.25
2023-04-13T14:42:24.322Z,99111.78
2023-04-13T14:44:54.368Z,99107.59
2023-04-13T14:47:21.061Z,99122.19
2023-04-13T14:49:47.666Z,99122.13
2023-04-13T14:52:14.758Z,99110.88
2023-04-13T14:54:42.065Z,99132.41
2023-04-13T14:57:09.369Z,99129.59
2023-04-13T14:59:35.953Z,99136.16
2023-04-13T15:02:02.739Z,99148.00
2023-04-13T15:04:29.860Z,99159.28
2023-04-13T15:06:56.596Z,99164.41
2023-04-13T15:09:23.949Z,99160.00
2023-04-13T15:11:52.027Z,99174.09
2023-04-13T15:14:18.654Z,99162.28
2023-04-13T15:16:45.527Z,99162.81
2023-04-13T15:19:12.808Z,99159.56
2023-04-13T15:21:39.431Z,99162.53
2023-04-13T15:24:06.652Z,99181.97
2023-04-13T15:26:39.453Z,99169.97
2023-04-13T15:29:07.232Z,99173.69
2023-04-13T15:31:36.599Z,99191.97
2023-04-13T15:34:05.601Z,99179.53
2023-04-13T15:36:32.258Z,99189.19
2023-04-13T15:38:59.230Z,99169.06
2023-04-13T15:41:27.826Z,99160.88
2023-04-13T15:43:56.092Z,99078.25
2023-04-13T15:46:22.954Z,99033.28
2023-04-13T15:48:50.514Z,99001.19
2023-04-13T15:51:17.250Z,56282.84
2023-04-13T15:53:43.800Z,56282.84
2023-04-13T15:56:10.416Z,56282.84
2023-04-13T15:58:37.208Z,56282.84
2023-04-13T16:01:06.241Z,56282.84
2023-04-13T16:03:34.164Z,56282.84
2023-04-13T16:06:01.312Z,98934.13
2023-04-13T16:08:29.045Z,98939.19
2023-04-13T16:10:55.742Z,98945.59
2023-04-13T16:13:22.627Z,98960.72
2023-04-13T16:15:55.613Z,98970.13
2023-04-13T16:18:28.944Z,99030.34
2023-04-13T16:20:59.139Z,99161.09
2023-04-13T16:23:27.843Z,99278.88
2023-04-13T16:25:54.694Z,99316.94
2023-04-13T16:28:21.845Z,99353.53
2023-04-13T16:30:49.325Z,99396.69
2023-04-13T16:33:16.013Z,99424.53
2023-04-13T16:35:42.584Z,99435.25
2023-04-13T16:38:09.211Z,99485.56
2023-04-13T16:40:36.091Z,99503.56
2023-04-13T16:43:05.276Z,99526.75
2023-04-13T16:45:32.713Z,99516.56
2023-04-13T16:48:00.048Z,99512.97
2023-04-13T16:50:30.343Z,99503.06
2023-04-13T16:52:59.355Z,99517.31
2023-04-13T16:55:28.372Z,99520.56
2023-04-13T16:57:55.691Z,99518.56
2023-04-13T17:00:23.214Z,99545.19
2023-04-13T17:02:49.999Z,99568.16
2023-04-13T17:05:17.038Z,99575.41
2023-04-13T17:07:46.709Z,99566.59
2023-04-13T17:10:14.403Z,99580.34
2023-04-13T17:12:41.298Z,99582.53
2023-04-13T17:15:09.565Z,99581.53
2023-04-13T17:17:38.073Z,99569.91
2023-04-13T17:20:05.907Z,99576.06
2023-04-13T17:22:32.553Z,99569.50
2023-04-13T17:24:59.208Z,99573.28
2023-04-13T17:27:25.769Z,99558.00
2023-04-13T17:29:52.406Z,99540.56
2023-04-13T17:32:21.612Z,99549.06
2023-04-13T17:34:48.970Z,99549.09
2023-04-13T17:37:15.843Z,99559.25
2023-04-13T17:39:46.451Z,99559.47
2023-04-13T17:42:16.477Z,99556.28
2023-04-13T17:44:44.015Z,99537.22
2023-04-13T17:47:11.162Z,99541.25
2023-04-13T17:49:37.997Z,99529.78
2023-04-13T17:52:04.658Z,99506.84
2023-04-13T17:54:31.684Z,99487.09
2023-04-13T17:56:58.787Z,99473.59
2023-04-13T17:59:25.805Z,99458.69
2023-04-13T18:01:52.781Z,99447.22
2023-04-13T18:04:19.773Z,99454.53
2023-04-13T18:06:46.469Z,99434.59
2023-04-13T18:09:13.051Z,99424.56
2023-04-13T18:11:40.009Z,99432.97
2023-04-13T18:14:08.950Z,99434.00
2023-04-13T18:16:36.145Z,99450.06
2023-04-13T18:19:03.493Z,99421.34
2023-04-13T18:21:32.229Z,99438.41
2023-04-13T18:24:01.716Z,99452.88
2023-04-13T18:26:28.799Z,99445.16
2023-04-13T18:28:55.516Z,99442.56
2023-04-13T18:31:22.288Z,99444.00
2023-04-13T18:33:48.864Z,99445.94
2023-04-13T18:36:17.247Z,99450.59
2023-04-13T18:38:44.862Z,99453.16
2023-04-13T18:41:11.839Z,99457.81
2023-04-13T18:43:38.460Z,99449.81
2023-04-13T18:46:05.655Z,99438.78
2023-04-13T18:48:32.392Z,99456.50
2023-04-13T18:51:00.313Z,99445.34
2023-04-13T18:53:26.917Z,99422.06
2023-04-13T18:55:53.568Z,99391.91
2023-04-13T18:58:20.807Z,99368.97
2023-04-13T19:00:48.002Z,99362.78
2023-04-13T19:03:15.081Z,99329.44
2023-04-13T19:05:41.813Z,99292.03
2023-04-13T19:08:10.037Z,99282.63
2023-04-13T19:10:36.696Z,99267.19
2023-04-13T19:13:03.550Z,99255.22
2023-04-13T19:15:31.395Z,99244.38
2023-04-13T19:17:59.317Z,99225.91
2023-04-13T19:20:25.992Z,99224.78
2023-04-13T19:22:52.527Z,99221.34
2023-04-13T19:25:19.411Z,99229.25
2023-04-13T19:27:47.119Z,99216.84
2023-04-13T19:30:15.616Z,99224.91
2023-04-13T19:32:44.313Z,99234.88
2023-04-13T19:35:12.945Z,99231.91
2023-04-13T19:37:40.993Z,99242.19
2023-04-13T19:40:13.962Z,99229.28
2023-04-13T19:42:42.362Z,99239.88
2023-04-13T19:45:10.087Z,99244.56
2023-04-13T19:47:38.388Z,99237.66
2023-04-13T19:50:07.549Z,99247.22
2023-04-13T19:52:34.206Z,99244.66
2023-04-13T19:55:03.078Z,99241.53
2023-04-13T19:57:30.857Z,99237.06
2023-04-13T19:59:57.915Z,99237.06
2023-04-13T20:02:24.965Z,99234.56
2023-04-13T20:04:52.219Z,99251.44
2023-04-13T20:07:18.872Z,99248.91
2023-04-13T20:09:45.713Z,99264.47
2023-04-13T20:12:12.650Z,99277.38
2023-04-13T20:14:42.422Z,99292.88
2023-04-13T20:17:09.556Z,99307.78
2023-04-13T20:19:36.701Z,99311.16
2023-04-13T20:22:04.459Z,99311.34
2023-04-13T20:24:31.752Z,99313.75
2023-04-13T20:26:58.938Z,99323.09
2023-04-13T20:29:27.234Z,99329.34
2023-04-13T20:31:54.783Z,99340.34
2023-04-13T20:34:22.171Z,99337.34
2023-04-13T20:36:48.956Z,99345.31
2023-04-13T20:39:18.562Z,99345.34
2023-04-13T20:41:55.106Z,99332.59
2023-04-13T20:44:25.907Z,99337.56
2023-04-13T20:46:56.189Z,99331.63
2023-04-13T20:49:24.142Z,99339.25
2023-04-13T20:51:53.710Z,99339.19
2023-04-13T20:54:20.545Z,99331.47
2023-04-13T20:56:48.508Z,99329.56
2023-04-13T20:59:18.502Z,99318.88
2023-04-13T21:01:45.748Z,99332.13
2023-04-13T21:04:12.535Z,99323.13
2023-04-13T21:06:40.609Z,99339.06
2023-04-13T21:09:08.640Z,99327.47
2023-04-13T21:11:35.672Z,99333.59
2023-04-13T21:14:02.582Z,99326.16
2023-04-13T21:16:29.504Z,99330.88
2023-04-13T21:18:57.084Z,99340.78
2023-04-13T21:21:24.923Z,99342.69
2023-04-13T21:23:53.180Z,99346.22
2023-04-13T21:26:20.602Z,99358.00
2023-04-13T21:28:47.275Z,99370.50
2023-04-13T21:31:13.826Z,99369.84
2023-04-13T21:33:40.507Z,99384.00
2023-04-13T21:38:40.851Z,99405.56
2023-04-13T21:41:15.105Z,99413.09
2023-04-13T21:43:42.802Z,99440.16
2023-04-13T21:46:11.316Z,99464.88
2023-04-13T21:48:38.238Z,99480.25
2023-04-13T21:51:09.164Z,99489.38
2023-04-13T21:53:36.426Z,99520.75
2023-04-13T21:56:03.960Z,99521.69
2023-04-13T21:58:44.743Z,99532.63
2023-04-13T22:01:12.877Z,99545.25
2023-04-13T22:03:42.027Z,99549.47
2023-04-13T22:06:10.125Z,99573.25
2023-04-13T22:08:37.016Z,99580.06
2023-04-13T22:11:04.289Z,99586.16
2023-04-13T22:13:31.227Z,99598.38
2023-04-13T22:15:57.948Z,99590.28
2023-04-13T22:18:24.897Z,99581.31
2023-04-13T22:20:51.482Z,99571.72
2023-04-13T22:23:18.848Z,99566.19
2023-04-13T22:26:01.720Z,99570.97
2023-04-13T22:28:29.694Z,99565.59
2023-04-13T22:30:56.302Z,99552.09
2023-04-13T22:33:23.228Z,99558.22
2023-04-13T22:35:50.789Z,99536.78
2023-04-13T22:38:20.475Z,99517.94
2023-04-13T22:40:47.077Z,99506.63
2023-04-13T22:43:13.653Z,99486.59
2023-04-13T22:45:40.459Z,99484.84
2023-04-13T22:48:07.068Z,99473.56
2023-04-13T22:50:35.996Z,99453.38
2023-04-13T22:53:02.735Z,99441.63
2023-04-13T22:55:29.614Z,99429.63
2023-04-13T22:57:56.734Z,99423.53
2023-04-13T23:00:23.681Z,99423.75
2023-04-13T23:02:52.896Z,99401.66
2023-04-13T23:05:19.897Z,99406.13
2023-04-13T23:07:46.759Z,99393.50
2023-04-13T23:10:15.253Z,99373.97
2023-04-13T23:12:43.248Z,99362.03
2023-04-13T23:15:10.493Z,99363.34
2023-04-13T23:17:37.249Z,99342.53
2023-04-13T23:20:08.256Z,99347.44
2023-04-13T23:22:34.820Z,99347.03
2023-04-13T23:25:01.312Z,99337.19
2023-04-13T23:27:27.832Z,99329.53
2023-04-13T23:29:54.398Z,99336.06
2023-04-13T23:32:22.189Z,99339.09
2023-04-13T23:34:48.845Z,99334.25
2023-04-13T23:37:15.478Z,99342.50
2023-04-13T23:39:42.267Z,99329.16
2023-04-13T23:42:09.314Z,99319.97
2023-04-13T23:44:35.845Z,99322.53
2023-04-13T23:47:02.491Z,99310.00
2023-04-13T23:49:29.067Z,99310.78
2023-04-13T23:51:55.637Z,99319.03
2023-04-13T23:54:22.150Z,99310.25
2023-04-13T23:56:48.863Z,99303.56
2023-04-13T23:59:15.641Z,99294.81
